sensor_id;sensor_type;location;lat;lon;timestamp;P1;durP1;ratioP1;P2;durP2;ratioP2
13481;SDS011;6813;60.352;15.746;2023-07-24T00:02:02;1.50;;;1.40;;
13481;SDS011;6813;60.352;15.746;2023-07-24T00:04:29;2.92;;;1.50;;
13481;SDS011;6813;60.352;15.746;2023-07-24T00:06:56;1.50;;;1.40;;
13481;SDS011;6813;60.352;15.746;2023-07-24T00:09:22;2.63;;;1.13;;
13481;SDS011;6813;60.352;15.746;2023-07-24T00:11:47;1.45;;;1.30;;
13481;SDS011;6813;60.352;15.746;2023-07-24T00:14:14;1.70;;;1.60;;
13481;SDS011;6813;60.352;15.746;2023-07-24T00:16:40;2.38;;;1.90;;
13481;SDS011;6813;60.352;15.746;2023-07-24T00:19:06;2.90;;;1.80;;
13481;SDS011;6813;60.352;15.746;2023-07-24T00:21:32;2.40;;;1.52;;
13481;SDS011;6813;60.352;15.746;2023-07-24T00:23:58;2.28;;;1.88;;
13481;SDS011;6813;60.352;15.746;2023-07-24T00:26:23;1.85;;;1.75;;
13481;SDS011;6813;60.352;15.746;2023-07-24T00:28:49;2.70;;;1.90;;
13481;SDS011;6813;60.352;15.746;2023-07-24T00:31:15;4.07;;;1.58;;
13481;SDS011;6813;60.352;15.746;2023-07-24T00:33:40;1.48;;;1.38;;
13481;SDS011;6813;60.352;15.746;2023-07-24T00:36:06;2.47;;;1.60;;
13481;SDS011;6813;60.352;15.746;2023-07-24T00:38:32;2.15;;;1.30;;
13481;SDS011;6813;60.352;15.746;2023-07-24T00:40:57;2.20;;;1.73;;
13481;SDS011;6813;60.352;15.746;2023-07-24T00:43:23;2.45;;;1.30;;
13481;SDS011;6813;60.352;15.746;2023-07-24T00:45:49;1.58;;;1.40;;
13481;SDS011;6813;60.352;15.746;2023-07-24T00:48:15;1.40;;;1.30;;
13481;SDS011;6813;60.352;15.746;2023-07-24T00:50:41;1.63;;;1.52;;
13481;SDS011;6813;60.352;15.746;2023-07-24T00:53:08;1.27;;;1.23;;
13481;SDS011;6813;60.352;15.746;2023-07-24T00:55:36;1.95;;;1.13;;
13481;SDS011;6813;60.352;15.746;2023-07-24T00:58:02;2.17;;;1.13;;
13481;SDS011;6813;60.352;15.746;2023-07-24T01:00:28;1.67;;;1.58;;
13481;SDS011;6813;60.352;15.746;2023-07-24T01:02:54;1.50;;;1.40;;
13481;SDS011;6813;60.352;15.746;2023-07-24T01:05:21;1.67;;;1.33;;
13481;SDS011;6813;60.352;15.746;2023-07-24T01:07:50;2.43;;;1.40;;
13481;SDS011;6813;60.352;15.746;2023-07-24T01:10:16;2.67;;;1.30;;
13481;SDS011;6813;60.352;15.746;2023-07-24T01:12:48;4.45;;;1.40;;
13481;SDS011;6813;60.352;15.746;2023-07-24T01:17:53;1.30;;;1.20;;
13481;SDS011;6813;60.352;15.746;2023-07-24T01:20:23;1.80;;;1.20;;
13481;SDS011;6813;60.352;15.746;2023-07-24T01:25:34;2.80;;;1.60;;
13481;SDS011;6813;60.352;15.746;2023-07-24T01:28:08;3.47;;;1.83;;
13481;SDS011;6813;60.352;15.746;2023-07-24T01:30:34;5.70;;;3.47;;
13481;SDS011;6813;60.352;15.746;2023-07-24T01:33:00;4.13;;;2.70;;
13481;SDS011;6813;60.352;15.746;2023-07-24T01:35:26;4.87;;;2.50;;
13481;SDS011;6813;60.352;15.746;2023-07-24T01:37:52;3.07;;;2.10;;
13481;SDS011;6813;60.352;15.746;2023-07-24T01:40:21;5.67;;;2.30;;
13481;SDS011;6813;60.352;15.746;2023-07-24T01:42:48;4.87;;;1.80;;
13481;SDS011;6813;60.352;15.746;2023-07-24T01:45:15;5.60;;;2.17;;
13481;SDS011;6813;60.352;15.746;2023-07-24T01:47:40;3.90;;;2.10;;
13481;SDS011;6813;60.352;15.746;2023-07-24T01:50:06;2.27;;;1.67;;
13481;SDS011;6813;60.352;15.746;2023-07-24T01:52:33;3.77;;;2.10;;
13481;SDS011;6813;60.352;15.746;2023-07-24T01:54:58;3.30;;;2.03;;
13481;SDS011;6813;60.352;15.746;2023-07-24T01:57:24;2.50;;;2.10;;
13481;SDS011;6813;60.352;15.746;2023-07-24T01:59:50;3.20;;;1.90;;
13481;SDS011;6813;60.352;15.746;2023-07-24T02:02:15;2.60;;;1.90;;
13481;SDS011;6813;60.352;15.746;2023-07-24T02:04:41;2.43;;;1.43;;
13481;SDS011;6813;60.352;15.746;2023-07-24T02:07:07;3.53;;;1.50;;
13481;SDS011;6813;60.352;15.746;2023-07-24T02:09:32;3.10;;;1.47;;
13481;SDS011;6813;60.352;15.746;2023-07-24T02:11:58;1.77;;;1.67;;
13481;SDS011;6813;60.352;15.746;2023-07-24T02:14:24;1.77;;;1.63;;
13481;SDS011;6813;60.352;15.746;2023-07-24T02:16:49;1.60;;;1.50;;
13481;SDS011;6813;60.352;15.746;2023-07-24T02:19:15;2.03;;;1.50;;
13481;SDS011;6813;60.352;15.746;2023-07-24T02:21:41;2.17;;;1.40;;
13481;SDS011;6813;60.352;15.746;2023-07-24T02:24:06;1.40;;;1.30;;
13481;SDS011;6813;60.352;15.746;2023-07-24T02:26:32;2.53;;;1.60;;
13481;SDS011;6813;60.352;15.746;2023-07-24T02:28:58;2.03;;;1.80;;
13481;SDS011;6813;60.352;15.746;2023-07-24T02:31:23;2.03;;;1.70;;
13481;SDS011;6813;60.352;15.746;2023-07-24T02:33:49;2.73;;;1.70;;
13481;SDS011;6813;60.352;15.746;2023-07-24T02:36:15;2.40;;;1.17;;
13481;SDS011;6813;60.352;15.746;2023-07-24T02:38:40;3.60;;;1.50;;
13481;SDS011;6813;60.352;15.746;2023-07-24T02:41:06;1.40;;;1.30;;
13481;SDS011;6813;60.352;15.746;2023-07-24T02:43:32;1.73;;;1.60;;
13481;SDS011;6813;60.352;15.746;2023-07-24T02:46:03;6.13;;;1.80;;
13481;SDS011;6813;60.352;15.746;2023-07-24T02:48:28;1.93;;;1.50;;
13481;SDS011;6813;60.352;15.746;2023-07-24T02:50:54;2.77;;;1.77;;
13481;SDS011;6813;60.352;15.746;2023-07-24T02:53:20;2.43;;;1.40;;
13481;SDS011;6813;60.352;15.746;2023-07-24T02:55:46;2.27;;;1.30;;
13481;SDS011;6813;60.352;15.746;2023-07-24T02:58:12;1.73;;;1.50;;
13481;SDS011;6813;60.352;15.746;2023-07-24T03:00:38;1.70;;;1.60;;
13481;SDS011;6813;60.352;15.746;2023-07-24T03:03:04;1.97;;;1.33;;
13481;SDS011;6813;60.352;15.746;2023-07-24T03:05:30;3.87;;;1.60;;
13481;SDS011;6813;60.352;15.746;2023-07-24T03:07:58;1.83;;;1.47;;
13481;SDS011;6813;60.352;15.746;2023-07-24T03:10:24;4.37;;;1.77;;
13481;SDS011;6813;60.352;15.746;2023-07-24T03:12:50;1.90;;;1.80;;
13481;SDS011;6813;60.352;15.746;2023-07-24T03:15:15;2.73;;;1.60;;
13481;SDS011;6813;60.352;15.746;2023-07-24T03:17:41;1.50;;;1.30;;
13481;SDS011;6813;60.352;15.746;2023-07-24T03:20:12;1.60;;;1.50;;
13481;SDS011;6813;60.352;15.746;2023-07-24T03:22:40;5.17;;;1.60;;
13481;SDS011;6813;60.352;15.746;2023-07-24T03:25:06;2.03;;;1.77;;
13481;SDS011;6813;60.352;15.746;2023-07-24T03:27:32;1.50;;;1.40;;
13481;SDS011;6813;60.352;15.746;2023-07-24T03:29:58;1.83;;;1.53;;
13481;SDS011;6813;60.352;15.746;2023-07-24T03:32:23;2.27;;;1.67;;
13481;SDS011;6813;60.352;15.746;2023-07-24T03:34:49;3.73;;;1.60;;
13481;SDS011;6813;60.352;15.746;2023-07-24T03:37:15;1.60;;;1.50;;
13481;SDS011;6813;60.352;15.746;2023-07-24T03:39:41;3.20;;;1.70;;
13481;SDS011;6813;60.352;15.746;2023-07-24T03:42:09;3.00;;;1.60;;
13481;SDS011;6813;60.352;15.746;2023-07-24T03:44:37;2.83;;;1.67;;
13481;SDS011;6813;60.352;15.746;2023-07-24T03:47:06;1.73;;;1.63;;
13481;SDS011;6813;60.352;15.746;2023-07-24T03:49:32;1.60;;;1.50;;
13481;SDS011;6813;60.352;15.746;2023-07-24T03:51:58;1.73;;;1.43;;
13481;SDS011;6813;60.352;15.746;2023-07-24T03:54:24;2.33;;;1.70;;
13481;SDS011;6813;60.352;15.746;2023-07-24T03:56:50;1.70;;;1.60;;
13481;SDS011;6813;60.352;15.746;2023-07-24T03:59:15;7.67;;;3.63;;
13481;SDS011;6813;60.352;15.746;2023-07-24T04:01:41;2.33;;;1.90;;
13481;SDS011;6813;60.352;15.746;2023-07-24T04:04:07;5.17;;;1.50;;
13481;SDS011;6813;60.352;15.746;2023-07-24T04:06:32;2.40;;;1.77;;
13481;SDS011;6813;60.352;15.746;2023-07-24T04:08:58;2.20;;;1.70;;
13481;SDS011;6813;60.352;15.746;2023-07-24T04:11:24;2.57;;;1.40;;
13481;SDS011;6813;60.352;15.746;2023-07-24T04:13:49;1.80;;;1.60;;
13481;SDS011;6813;60.352;15.746;2023-07-24T04:16:15;3.20;;;2.57;;
13481;SDS011;6813;60.352;15.746;2023-07-24T04:18:41;2.13;;;1.80;;
13481;SDS011;6813;60.352;15.746;2023-07-24T04:21:06;2.50;;;1.90;;
13481;SDS011;6813;60.352;15.746;2023-07-24T04:23:32;2.37;;;1.53;;
13481;SDS011;6813;60.352;15.746;2023-07-24T04:25:58;2.07;;;1.70;;
13481;SDS011;6813;60.352;15.746;2023-07-24T04:28:23;1.77;;;1.67;;
13481;SDS011;6813;60.352;15.746;2023-07-24T04:30:49;1.85;;;1.50;;
13481;SDS011;6813;60.352;15.746;2023-07-24T04:33:15;1.87;;;1.60;;
13481;SDS011;6813;60.352;15.746;2023-07-24T04:35:40;4.15;;;1.63;;
13481;SDS011;6813;60.352;15.746;2023-07-24T04:38:06;1.30;;;1.20;;
13481;SDS011;6813;60.352;15.746;2023-07-24T04:40:32;3.42;;;1.60;;
13481;SDS011;6813;60.352;15.746;2023-07-24T04:42:58;1.65;;;1.40;;
13481;SDS011;6813;60.352;15.746;2023-07-24T04:45:23;2.80;;;1.60;;
13481;SDS011;6813;60.352;15.746;2023-07-24T04:47:49;2.17;;;1.40;;
13481;SDS011;6813;60.352;15.746;2023-07-24T04:50:15;1.50;;;1.40;;
13481;SDS011;6813;60.352;15.746;2023-07-24T04:52:40;1.65;;;1.45;;
13481;SDS011;6813;60.352;15.746;2023-07-24T04:55:06;2.90;;;1.60;;
13481;SDS011;6813;60.352;15.746;2023-07-24T04:57:32;2.58;;;1.60;;
13481;SDS011;6813;60.352;15.746;2023-07-24T04:59:57;1.63;;;1.52;;
13481;SDS011;6813;60.352;15.746;2023-07-24T05:02:23;2.67;;;1.58;;
13481;SDS011;6813;60.352;15.746;2023-07-24T05:04:49;2.28;;;1.65;;
13481;SDS011;6813;60.352;15.746;2023-07-24T05:07:15;1.95;;;1.67;;
13481;SDS011;6813;60.352;15.746;2023-07-24T05:09:40;1.60;;;1.50;;
13481;SDS011;6813;60.352;15.746;2023-07-24T05:12:06;1.50;;;1.40;;
13481;SDS011;6813;60.352;15.746;2023-07-24T05:14:32;1.50;;;1.40;;
13481;SDS011;6813;60.352;15.746;2023-07-24T05:16:58;1.60;;;1.48;;
13481;SDS011;6813;60.352;15.746;2023-07-24T05:19:23;1.95;;;1.58;;
13481;SDS011;6813;60.352;15.746;2023-07-24T05:21:49;1.70;;;1.60;;
13481;SDS011;6813;60.352;15.746;2023-07-24T05:24:15;1.80;;;1.70;;
13481;SDS011;6813;60.352;15.746;2023-07-24T05:26:41;3.42;;;1.58;;
13481;SDS011;6813;60.352;15.746;2023-07-24T05:29:06;2.65;;;1.75;;
13481;SDS011;6813;60.352;15.746;2023-07-24T05:31:33;2.72;;;1.88;;
13481;SDS011;6813;60.352;15.746;2023-07-24T05:34:00;1.60;;;1.50;;
13481;SDS011;6813;60.352;15.746;2023-07-24T05:36:26;1.98;;;1.88;;
13481;SDS011;6813;60.352;15.746;2023-07-24T05:38:52;1.80;;;1.70;;
13481;SDS011;6813;60.352;15.746;2023-07-24T05:41:18;2.78;;;2.20;;
13481;SDS011;6813;60.352;15.746;2023-07-24T05:43:43;2.00;;;1.90;;
13481;SDS011;6813;60.352;15.746;2023-07-24T05:46:09;2.15;;;1.80;;
13481;SDS011;6813;60.352;15.746;2023-07-24T05:48:35;1.88;;;1.77;;
13481;SDS011;6813;60.352;15.746;2023-07-24T05:51:00;1.75;;;1.65;;
13481;SDS011;6813;60.352;15.746;2023-07-24T05:53:26;4.28;;;1.67;;
13481;SDS011;6813;60.352;15.746;2023-07-24T05:55:58;5.45;;;2.30;;
13481;SDS011;6813;60.352;15.746;2023-07-24T05:58:25;10.45;;;3.35;;
13481;SDS011;6813;60.352;15.746;2023-07-24T06:00:51;3.15;;;1.88;;
13481;SDS011;6813;60.352;15.746;2023-07-24T06:03:17;1.75;;;1.65;;
13481;SDS011;6813;60.352;15.746;2023-07-24T06:05:42;2.00;;;1.83;;
13481;SDS011;6813;60.352;15.746;2023-07-24T06:08:08;3.60;;;2.13;;
13481;SDS011;6813;60.352;15.746;2023-07-24T06:10:36;2.17;;;1.92;;
13481;SDS011;6813;60.352;15.746;2023-07-24T06:13:01;2.05;;;1.83;;
13481;SDS011;6813;60.352;15.746;2023-07-24T06:15:28;2.33;;;2.08;;
13481;SDS011;6813;60.352;15.746;2023-07-24T06:17:53;1.70;;;1.60;;
13481;SDS011;6813;60.352;15.746;2023-07-24T06:20:19;1.73;;;1.63;;
13481;SDS011;6813;60.352;15.746;2023-07-24T06:22:45;2.25;;;1.70;;
13481;SDS011;6813;60.352;15.746;2023-07-24T06:25:10;5.15;;;2.58;;
13481;SDS011;6813;60.352;15.746;2023-07-24T06:27:36;1.70;;;1.60;;
13481;SDS011;6813;60.352;15.746;2023-07-24T06:30:02;2.00;;;1.73;;
13481;SDS011;6813;60.352;15.746;2023-07-24T06:32:28;2.17;;;1.63;;
13481;SDS011;6813;60.352;15.746;2023-07-24T06:34:54;1.65;;;1.55;;
13481;SDS011;6813;60.352;15.746;2023-07-24T06:37:20;2.05;;;1.65;;
13481;SDS011;6813;60.352;15.746;2023-07-24T06:39:45;1.40;;;1.30;;
13481;SDS011;6813;60.352;15.746;2023-07-24T06:42:11;1.63;;;1.52;;
13481;SDS011;6813;60.352;15.746;2023-07-24T06:44:37;1.70;;;1.60;;
13481;SDS011;6813;60.352;15.746;2023-07-24T06:47:02;1.67;;;1.30;;
13481;SDS011;6813;60.352;15.746;2023-07-24T06:49:28;2.58;;;1.33;;
13481;SDS011;6813;60.352;15.746;2023-07-24T06:51:54;1.55;;;1.45;;
13481;SDS011;6813;60.352;15.746;2023-07-24T06:54:19;1.80;;;1.70;;
13481;SDS011;6813;60.352;15.746;2023-07-24T06:56:45;1.60;;;1.30;;
13481;SDS011;6813;60.352;15.746;2023-07-24T06:59:11;1.40;;;1.30;;
13481;SDS011;6813;60.352;15.746;2023-07-24T07:01:36;1.60;;;1.50;;
13481;SDS011;6813;60.352;15.746;2023-07-24T07:04:02;1.80;;;1.50;;
13481;SDS011;6813;60.352;15.746;2023-07-24T07:06:28;2.55;;;1.45;;
13481;SDS011;6813;60.352;15.746;2023-07-24T07:08:53;2.50;;;1.70;;
13481;SDS011;6813;60.352;15.746;2023-07-24T07:11:19;1.55;;;1.45;;
13481;SDS011;6813;60.352;15.746;2023-07-24T07:13:44;1.63;;;1.40;;
13481;SDS011;6813;60.352;15.746;2023-07-24T07:16:10;1.60;;;1.50;;
13481;SDS011;6813;60.352;15.746;2023-07-24T07:18:36;1.42;;;1.33;;
13481;SDS011;6813;60.352;15.746;2023-07-24T07:21:01;1.65;;;1.40;;
13481;SDS011;6813;60.352;15.746;2023-07-24T07:23:27;1.27;;;1.17;;
13481;SDS011;6813;60.352;15.746;2023-07-24T07:25:53;3.42;;;1.52;;
13481;SDS011;6813;60.352;15.746;2023-07-24T07:28:18;2.35;;;1.42;;
13481;SDS011;6813;60.352;15.746;2023-07-24T07:30:44;2.03;;;1.70;;
13481;SDS011;6813;60.352;15.746;2023-07-24T07:33:10;3.05;;;1.30;;
13481;SDS011;6813;60.352;15.746;2023-07-24T07:35:36;1.83;;;1.70;;
13481;SDS011;6813;60.352;15.746;2023-07-24T07:38:02;1.73;;;1.35;;
13481;SDS011;6813;60.352;15.746;2023-07-24T07:40:28;1.50;;;1.40;;
13481;SDS011;6813;60.352;15.746;2023-07-24T07:42:54;2.05;;;1.35;;
13481;SDS011;6813;60.352;15.746;2023-07-24T07:45:21;1.50;;;1.40;;
13481;SDS011;6813;60.352;15.746;2023-07-24T07:47:47;1.38;;;1.33;;
13481;SDS011;6813;60.352;15.746;2023-07-24T07:50:13;1.30;;;1.20;;
13481;SDS011;6813;60.352;15.746;2023-07-24T07:52:38;1.50;;;1.40;;
13481;SDS011;6813;60.352;15.746;2023-07-24T07:55:05;1.70;;;1.60;;
13481;SDS011;6813;60.352;15.746;2023-07-24T07:57:31;1.60;;;1.50;;
13481;SDS011;6813;60.352;15.746;2023-07-24T08:00:03;1.60;;;1.50;;
13481;SDS011;6813;60.352;15.746;2023-07-24T08:02:30;1.92;;;1.25;;
13481;SDS011;6813;60.352;15.746;2023-07-24T08:04:57;2.47;;;1.42;;
13481;SDS011;6813;60.352;15.746;2023-07-24T08:07:23;3.47;;;1.90;;
13481;SDS011;6813;60.352;15.746;2023-07-24T08:09:48;1.77;;;1.33;;
13481;SDS011;6813;60.352;15.746;2023-07-24T08:12:14;2.45;;;1.60;;
13481;SDS011;6813;60.352;15.746;2023-07-24T08:14:40;1.55;;;1.40;;
13481;SDS011;6813;60.352;15.746;2023-07-24T08:17:06;1.20;;;1.20;;
13481;SDS011;6813;60.352;15.746;2023-07-24T08:19:31;1.60;;;1.50;;
13481;SDS011;6813;60.352;15.746;2023-07-24T08:21:57;1.67;;;1.58;;
13481;SDS011;6813;60.352;15.746;2023-07-24T08:24:23;2.28;;;1.77;;
13481;SDS011;6813;60.352;15.746;2023-07-24T08:26:48;1.23;;;1.15;;
13481;SDS011;6813;60.352;15.746;2023-07-24T08:29:14;1.55;;;1.42;;
13481;SDS011;6813;60.352;15.746;2023-07-24T08:31:40;1.25;;;1.20;;
13481;SDS011;6813;60.352;15.746;2023-07-24T08:34:05;1.27;;;1.17;;
13481;SDS011;6813;60.352;15.746;2023-07-24T08:36:31;5.45;;;1.40;;
13481;SDS011;6813;60.352;15.746;2023-07-24T08:38:57;1.40;;;1.30;;
13481;SDS011;6813;60.352;15.746;2023-07-24T08:41:22;1.10;;;1.00;;
13481;SDS011;6813;60.352;15.746;2023-07-24T08:43:48;1.40;;;1.30;;
13481;SDS011;6813;60.352;15.746;2023-07-24T08:46:16;1.20;;;1.10;;
13481;SDS011;6813;60.352;15.746;2023-07-24T08:48:43;1.27;;;1.20;;
13481;SDS011;6813;60.352;15.746;2023-07-24T08:51:10;0.88;;;0.75;;
13481;SDS011;6813;60.352;15.746;2023-07-24T08:53:37;1.25;;;1.08;;
13481;SDS011;6813;60.352;15.746;2023-07-24T08:56:05;1.17;;;0.93;;
13481;SDS011;6813;60.352;15.746;2023-07-24T08:58:32;1.13;;;1.00;;
13481;SDS011;6813;60.352;15.746;2023-07-24T09:01:00;1.13;;;0.95;;
13481;SDS011;6813;60.352;15.746;2023-07-24T09:03:27;1.52;;;0.80;;
13481;SDS011;6813;60.352;15.746;2023-07-24T09:05:53;1.00;;;1.00;;
13481;SDS011;6813;60.352;15.746;2023-07-24T09:11:14;1.10;;;1.00;;
13481;SDS011;6813;60.352;15.746;2023-07-24T09:13:43;1.55;;;1.05;;
13481;SDS011;6813;60.352;15.746;2023-07-24T09:16:09;0.98;;;0.90;;
13481;SDS011;6813;60.352;15.746;2023-07-24T09:18:45;1.30;;;1.20;;
13481;SDS011;6813;60.352;15.746;2023-07-24T09:21:11;1.35;;;0.90;;
13481;SDS011;6813;60.352;15.746;2023-07-24T09:23:37;1.17;;;1.10;;
13481;SDS011;6813;60.352;15.746;2023-07-24T09:26:08;3.67;;;2.13;;
13481;SDS011;6813;60.352;15.746;2023-07-24T09:28:34;1.42;;;1.17;;
13481;SDS011;6813;60.352;15.746;2023-07-24T09:31:00;1.30;;;1.20;;
13481;SDS011;6813;60.352;15.746;2023-07-24T09:33:37;1.20;;;1.10;;
13481;SDS011;6813;60.352;15.746;2023-07-24T09:36:04;1.45;;;1.25;;
13481;SDS011;6813;60.352;15.746;2023-07-24T09:38:35;1.08;;;1.02;;
13481;SDS011;6813;60.352;15.746;2023-07-24T09:41:04;1.20;;;1.05;;
13481;SDS011;6813;60.352;15.746;2023-07-24T09:43:31;1.40;;;1.30;;
13481;SDS011;6813;60.352;15.746;2023-07-24T09:45:58;1.00;;;1.00;;
13481;SDS011;6813;60.352;15.746;2023-07-24T09:48:24;1.33;;;1.23;;
13481;SDS011;6813;60.352;15.746;2023-07-24T09:50:55;1.48;;;1.08;;
13481;SDS011;6813;60.352;15.746;2023-07-24T09:56:09;2.83;;;1.50;;
13481;SDS011;6813;60.352;15.746;2023-07-24T09:58:38;2.35;;;1.25;;
13481;SDS011;6813;60.352;15.746;2023-07-24T10:01:06;1.77;;;1.10;;
13481;SDS011;6813;60.352;15.746;2023-07-24T10:03:34;1.30;;;1.13;;
13481;SDS011;6813;60.352;15.746;2023-07-24T10:06:03;2.25;;;1.20;;
13481;SDS011;6813;60.352;15.746;2023-07-24T10:08:30;1.17;;;1.10;;
13481;SDS011;6813;60.352;15.746;2023-07-24T10:10:57;1.23;;;1.13;;
13481;SDS011;6813;60.352;15.746;2023-07-24T10:13:25;1.35;;;1.20;;
13481;SDS011;6813;60.352;15.746;2023-07-24T10:15:52;1.30;;;1.20;;
13481;SDS011;6813;60.352;15.746;2023-07-24T10:18:17;0.98;;;0.98;;
13481;SDS011;6813;60.352;15.746;2023-07-24T10:20:59;1.10;;;1.10;;
13481;SDS011;6813;60.352;15.746;2023-07-24T10:23:26;1.38;;;1.30;;
13481;SDS011;6813;60.352;15.746;2023-07-24T10:25:52;2.22;;;1.20;;
13481;SDS011;6813;60.352;15.746;2023-07-24T10:28:18;1.25;;;1.25;;
13481;SDS011;6813;60.352;15.746;2023-07-24T10:30:44;1.98;;;1.33;;
13481;SDS011;6813;60.352;15.746;2023-07-24T10:33:13;1.35;;;1.25;;
13481;SDS011;6813;60.352;15.746;2023-07-24T10:35:46;2.90;;;1.17;;
13481;SDS011;6813;60.352;15.746;2023-07-24T10:38:16;1.40;;;1.10;;
13481;SDS011;6813;60.352;15.746;2023-07-24T10:40:42;1.23;;;0.90;;
13481;SDS011;6813;60.352;15.746;2023-07-24T10:43:11;3.75;;;1.25;;
13481;SDS011;6813;60.352;15.746;2023-07-24T10:45:52;2.25;;;1.20;;
13481;SDS011;6813;60.352;15.746;2023-07-24T10:48:24;1.20;;;1.10;;
13481;SDS011;6813;60.352;15.746;2023-07-24T10:50:50;3.25;;;1.10;;
13481;SDS011;6813;60.352;15.746;2023-07-24T10:53:17;1.02;;;0.88;;
13481;SDS011;6813;60.352;15.746;2023-07-24T10:55:45;1.35;;;1.10;;
13481;SDS011;6813;60.352;15.746;2023-07-24T10:58:12;1.08;;;0.90;;
13481;SDS011;6813;60.352;15.746;2023-07-24T11:00:39;1.33;;;1.02;;
13481;SDS011;6813;60.352;15.746;2023-07-24T11:03:09;1.38;;;1.27;;
13481;SDS011;6813;60.352;15.746;2023-07-24T11:05:40;2.22;;;1.23;;
13481;SDS011;6813;60.352;15.746;2023-07-24T11:08:16;0.90;;;0.90;;
13481;SDS011;6813;60.352;15.746;2023-07-24T11:10:45;2.00;;;1.10;;
13481;SDS011;6813;60.352;15.746;2023-07-24T11:13:17;1.45;;;1.17;;
13481;SDS011;6813;60.352;15.746;2023-07-24T11:15:44;1.30;;;1.20;;
13481;SDS011;6813;60.352;15.746;2023-07-24T11:18:11;1.10;;;1.00;;
13481;SDS011;6813;60.352;15.746;2023-07-24T11:20:38;0.90;;;0.85;;
13481;SDS011;6813;60.352;15.746;2023-07-24T11:23:13;2.17;;;1.05;;
13481;SDS011;6813;60.352;15.746;2023-07-24T11:25:40;1.35;;;1.10;;
13481;SDS011;6813;60.352;15.746;2023-07-24T11:28:07;0.93;;;0.90;;
13481;SDS011;6813;60.352;15.746;2023-07-24T11:30:33;1.48;;;1.10;;
13481;SDS011;6813;60.352;15.746;2023-07-24T11:33:00;3.38;;;1.10;;
13481;SDS011;6813;60.352;15.746;2023-07-24T11:35:27;0.95;;;0.95;;
13481;SDS011;6813;60.352;15.746;2023-07-24T11:37:53;2.13;;;1.13;;
13481;SDS011;6813;60.352;15.746;2023-07-24T11:40:19;3.45;;;1.40;;
13481;SDS011;6813;60.352;15.746;2023-07-24T11:42:46;1.23;;;1.10;;
13481;SDS011;6813;60.352;15.746;2023-07-24T11:45:13;1.33;;;1.02;;
13481;SDS011;6813;60.352;15.746;2023-07-24T11:47:46;2.55;;;1.00;;
13481;SDS011;6813;60.352;15.746;2023-07-24T11:50:13;2.80;;;1.20;;
13481;SDS011;6813;60.352;15.746;2023-07-24T11:52:43;1.00;;;1.00;;
13481;SDS011;6813;60.352;15.746;2023-07-24T11:55:11;1.40;;;0.90;;
13481;SDS011;6813;60.352;15.746;2023-07-24T11:57:41;1.17;;;1.08;;
13481;SDS011;6813;60.352;15.746;2023-07-24T12:00:20;0.88;;;0.88;;
13481;SDS011;6813;60.352;15.746;2023-07-24T12:02:47;0.90;;;0.90;;
13481;SDS011;6813;60.352;15.746;2023-07-24T12:05:13;1.63;;;1.08;;
13481;SDS011;6813;60.352;15.746;2023-07-24T12:07:38;0.90;;;0.90;;
13481;SDS011;6813;60.352;15.746;2023-07-24T12:10:05;1.98;;;1.17;;
13481;SDS011;6813;60.352;15.746;2023-07-24T12:12:42;1.40;;;1.20;;
13481;SDS011;6813;60.352;15.746;2023-07-24T12:15:10;1.08;;;0.93;;
13481;SDS011;6813;60.352;15.746;2023-07-24T12:17:36;0.90;;;0.90;;
13481;SDS011;6813;60.352;15.746;2023-07-24T12:20:05;1.30;;;1.20;;
13481;SDS011;6813;60.352;15.746;2023-07-24T12:22:36;1.70;;;1.00;;
13481;SDS011;6813;60.352;15.746;2023-07-24T12:25:02;1.13;;;1.05;;
13481;SDS011;6813;60.352;15.746;2023-07-24T12:27:29;1.20;;;1.10;;
13481;SDS011;6813;60.352;15.746;2023-07-24T12:29:54;1.98;;;1.00;;
13481;SDS011;6813;60.352;15.746;2023-07-24T12:32:20;1.13;;;1.13;;
13481;SDS011;6813;60.352;15.746;2023-07-24T12:34:48;1.20;;;1.10;;
13481;SDS011;6813;60.352;15.746;2023-07-24T12:37:15;1.40;;;1.30;;
13481;SDS011;6813;60.352;15.746;2023-07-24T12:39:42;2.28;;;1.40;;
13481;SDS011;6813;60.352;15.746;2023-07-24T12:42:12;1.10;;;1.05;;
13481;SDS011;6813;60.352;15.746;2023-07-24T12:44:38;1.35;;;1.25;;
13481;SDS011;6813;60.352;15.746;2023-07-24T12:47:04;1.40;;;1.23;;
13481;SDS011;6813;60.352;15.746;2023-07-24T12:49:30;0.90;;;0.90;;
13481;SDS011;6813;60.352;15.746;2023-07-24T12:51:56;1.20;;;1.20;;
13481;SDS011;6813;60.352;15.746;2023-07-24T12:54:22;1.20;;;1.10;;
13481;SDS011;6813;60.352;15.746;2023-07-24T12:56:48;1.33;;;1.05;;
13481;SDS011;6813;60.352;15.746;2023-07-24T12:59:14;1.80;;;1.17;;
13481;SDS011;6813;60.352;15.746;2023-07-24T13:01:40;1.27;;;1.15;;
13481;SDS011;6813;60.352;15.746;2023-07-24T13:04:07;1.38;;;1.10;;
13481;SDS011;6813;60.352;15.746;2023-07-24T13:06:33;1.20;;;1.10;;
13481;SDS011;6813;60.352;15.746;2023-07-24T13:08:59;1.08;;;0.98;;
13481;SDS011;6813;60.352;15.746;2023-07-24T13:11:25;3.03;;;1.40;;
13481;SDS011;6813;60.352;15.746;2023-07-24T13:13:53;2.38;;;1.40;;
13481;SDS011;6813;60.352;15.746;2023-07-24T13:16:18;1.10;;;1.05;;
13481;SDS011;6813;60.352;15.746;2023-07-24T13:18:44;0.90;;;0.90;;
13481;SDS011;6813;60.352;15.746;2023-07-24T13:21:10;1.15;;;1.00;;
13481;SDS011;6813;60.352;15.746;2023-07-24T13:23:36;2.13;;;1.00;;
13481;SDS011;6813;60.352;15.746;2023-07-24T13:26:02;1.30;;;1.00;;
13481;SDS011;6813;60.352;15.746;2023-07-24T13:28:27;1.65;;;1.35;;
13481;SDS011;6813;60.352;15.746;2023-07-24T13:30:53;1.42;;;1.30;;
13481;SDS011;6813;60.352;15.746;2023-07-24T13:33:19;1.33;;;1.10;;
13481;SDS011;6813;60.352;15.746;2023-07-24T13:35:47;1.42;;;1.33;;
13481;SDS011;6813;60.352;15.746;2023-07-24T13:38:13;1.40;;;1.30;;
13481;SDS011;6813;60.352;15.746;2023-07-24T13:40:39;1.35;;;1.25;;
13481;SDS011;6813;60.352;15.746;2023-07-24T13:43:05;2.80;;;1.00;;
13481;SDS011;6813;60.352;15.746;2023-07-24T13:45:31;1.70;;;1.00;;
13481;SDS011;6813;60.352;15.746;2023-07-24T13:47:57;2.08;;;1.23;;
13481;SDS011;6813;60.352;15.746;2023-07-24T13:50:23;1.35;;;1.25;;
13481;SDS011;6813;60.352;15.746;2023-07-24T13:52:49;1.92;;;1.50;;
13481;SDS011;6813;60.352;15.746;2023-07-24T13:55:15;1.30;;;1.20;;
13481;SDS011;6813;60.352;15.746;2023-07-24T13:57:41;1.40;;;1.30;;
13481;SDS011;6813;60.352;15.746;2023-07-24T14:00:06;1.33;;;1.23;;
13481;SDS011;6813;60.352;15.746;2023-07-24T14:02:33;1.33;;;1.20;;
13481;SDS011;6813;60.352;15.746;2023-07-24T14:04:58;1.98;;;1.30;;
13481;SDS011;6813;60.352;15.746;2023-07-24T14:07:24;1.02;;;1.02;;
13481;SDS011;6813;60.352;15.746;2023-07-24T14:09:50;1.38;;;1.27;;
13481;SDS011;6813;60.352;15.746;2023-07-24T14:12:15;1.83;;;1.30;;
13481;SDS011;6813;60.352;15.746;2023-07-24T14:14:41;2.35;;;1.33;;
13481;SDS011;6813;60.352;15.746;2023-07-24T14:17:07;1.88;;;1.40;;
13481;SDS011;6813;60.352;15.746;2023-07-24T14:19:32;1.73;;;1.15;;
13481;SDS011;6813;60.352;15.746;2023-07-24T14:21:58;1.10;;;1.08;;
13481;SDS011;6813;60.352;15.746;2023-07-24T14:24:24;1.88;;;1.20;;
13481;SDS011;6813;60.352;15.746;2023-07-24T14:26:50;4.15;;;1.50;;
13481;SDS011;6813;60.352;15.746;2023-07-24T14:29:16;1.40;;;1.30;;
13481;SDS011;6813;60.352;15.746;2023-07-24T14:31:42;1.70;;;1.33;;
13481;SDS011;6813;60.352;15.746;2023-07-24T14:34:09;2.67;;;1.85;;
13481;SDS011;6813;60.352;15.746;2023-07-24T14:36:37;1.77;;;1.30;;
13481;SDS011;6813;60.352;15.746;2023-07-24T14:39:03;1.70;;;1.60;;
13481;SDS011;6813;60.352;15.746;2023-07-24T14:41:29;1.35;;;1.25;;
13481;SDS011;6813;60.352;15.746;2023-07-24T14:43:55;1.38;;;1.20;;
13481;SDS011;6813;60.352;15.746;2023-07-24T14:46:21;1.85;;;1.27;;
13481;SDS011;6813;60.352;15.746;2023-07-24T14:48:46;1.33;;;1.23;;
13481;SDS011;6813;60.352;15.746;2023-07-24T14:51:12;1.30;;;1.20;;
13481;SDS011;6813;60.352;15.746;2023-07-24T14:53:38;2.38;;;1.50;;
13481;SDS011;6813;60.352;15.746;2023-07-24T14:56:04;1.50;;;1.40;;